Time;durP1;ratioP1;P1;durP2;ratioP2;P2;SDS_P1;SDS_P2;PMS_P1;PMS_P2;Temp;Humidity;BMP_temperature;BMP_pressure;BME280_temperature;BME280_humidity;BME280_pressure;Samples;Min_cycle;Max_cycle;Signal;HPM_P1;HPM_P2
2023/12/11 00:01:38;;;;;;;7.40;3.67;;;7.50;99.90;;;;;;21135313;28;20031;-77
2023/12/11 00:11:38;;;;;;;5.90;2.10;;;7.40;99.90;;;;;;21143736;28;20062;-77
2023/12/11 00:21:40;;;;;;;4.57;1.40;;;7.60;99.90;;;;;;21146552;28;20376;-77
2023/12/11 00:31:41;;;;;;;177.65;12.15;;;7.80;99.90;;;;;;21136769;28;20123;-77
2023/12/11 00:41:44;;;;;;;10.57;5.07;;;7.40;99.90;;;;;;21144322;28;20106;-77
2023/12/11 00:51:46;;;;;;;7.75;4.38;;;7.30;99.90;;;;;;21153577;28;20381;-77
2023/12/11 01:01:48;;;;;;;19.67;4.63;;;7.50;99.90;;;;;;21148105;28;20111;-77
2023/12/11 01:11:49;;;;;;;180.63;15.15;;;7.70;99.90;;;;;;21140098;28;20032;-77
2023/12/11 01:21:49;;;;;;;28.57;13.20;;;7.60;99.90;;;;;;21140257;28;20110;-77
2023/12/11 01:31:50;;;;;;;37.40;13.60;;;7.50;99.90;;;;;;21140755;28;20425;-77
2023/12/11 01:41:51;;;;;;;24.17;12.00;;;7.80;99.90;;;;;;21135740;28;20024;-77
2023/12/11 01:51:52;;;;;;;6.30;3.70;;;7.80;99.90;;;;;;21137155;28;20024;-77
2023/12/11 02:01:53;;;;;;;;;;;8.00;99.90;;;;;;21132994;28;20512;-77
2023/12/11 02:11:55;;;;;;;12.52;4.85;;;8.30;99.90;;;;;;21136566;28;20424;-77
2023/12/11 02:21:56;;;;;;;9.60;4.90;;;8.30;99.90;;;;;;21118497;28;20035;-77
2023/12/11 02:31:57;;;;;;;19.80;11.27;;;8.30;99.90;;;;;;21132182;28;20052;-77
2023/12/11 02:41:58;;;;;;;17.17;7.90;;;8.50;99.90;;;;;;21117138;28;20480;-77
2023/12/11 02:51:59;;;;;;;20.13;10.23;;;8.50;99.90;;;;;;21131364;28;20543;-77
2023/12/11 03:01:59;;;;;;;10.57;6.07;;;8.90;99.90;;;;;;21133661;28;20034;-77
2023/12/11 03:12:00;;;;;;;8.80;3.90;;;9.10;99.90;;;;;;21135382;28;20027;-77
2023/12/11 03:22:01;;;;;;;10.10;3.67;;;9.30;99.90;;;;;;21139960;28;20027;-78
2023/12/11 03:32:02;;;;;;;5.00;3.27;;;9.40;99.90;;;;;;21144849;28;20031;-77
2023/12/11 03:42:03;;;;;;;;;;;9.50;99.90;;;;;;21155302;28;20034;-77
2023/12/11 03:52:04;;;;;;;5.78;2.83;;;9.60;99.90;;;;;;21133205;28;20434;-77
2023/12/11 04:02:05;;;;;;;7.65;2.33;;;9.80;99.90;;;;;;21151692;28;20027;-77
2023/12/11 04:12:06;;;;;;;;;;;9.90;99.90;;;;;;21154131;28;20024;-77
2023/12/11 04:22:07;;;;;;;2.90;1.70;;;10.00;99.90;;;;;;21150363;28;20460;-77
2023/12/11 04:32:08;;;;;;;2.23;1.30;;;9.90;99.90;;;;;;21156240;28;20016;-77
2023/12/11 04:42:08;;;;;;;2.97;0.97;;;9.90;99.90;;;;;;21148945;28;20026;-77
2023/12/11 04:52:09;;;;;;;1.57;1.20;;;10.00;99.90;;;;;;21133463;28;20031;-78
2023/12/11 05:02:10;;;;;;;2.63;1.50;;;10.20;99.90;;;;;;21151861;28;20031;-77
2023/12/11 05:12:11;;;;;;;2.27;0.83;;;10.20;99.90;;;;;;21147187;27;20025;-77
2023/12/11 05:22:12;;;;;;;0.63;0.50;;;10.20;99.90;;;;;;21144001;28;20027;-77
2023/12/11 05:32:14;;;;;;;2.80;0.40;;;10.30;99.90;;;;;;21150007;28;20042;-78
2023/12/11 05:42:15;;;;;;;0.60;0.50;;;10.20;99.90;;;;;;21142974;28;20028;-78
2023/12/11 05:52:15;;;;;;;0.77;0.60;;;10.20;99.90;;;;;;21125765;28;20058;-78
2023/12/11 06:02:16;;;;;;;1.03;0.60;;;10.20;99.90;;;;;;21148276;28;20141;-78
2023/12/11 06:12:17;;;;;;;0.70;0.53;;;10.20;99.90;;;;;;21142717;28;20301;-77
2023/12/11 06:22:18;;;;;;;2.90;1.03;;;10.20;99.90;;;;;;21160337;28;20453;-78
2023/12/11 06:32:19;;;;;;;1.10;0.40;;;10.30;99.90;;;;;;21171047;28;20024;-78
2023/12/11 06:42:20;;;;;;;1.23;0.70;;;10.10;99.90;;;;;;21160717;28;20400;-76
2023/12/11 06:52:20;;;;;;;2.00;1.33;;;10.10;99.90;;;;;;21143858;28;20034;-77
2023/12/11 07:02:21;;;;;;;0.50;0.50;;;10.00;99.90;;;;;;21139531;28;20504;-77
2023/12/11 07:12:22;;;;;;;1.10;0.90;;;9.70;99.90;;;;;;21147032;28;20051;-77
2023/12/11 07:22:24;;;;;;;2.40;1.00;;;9.70;99.90;;;;;;21159035;28;20034;-77
2023/12/11 07:32:25;;;;;;;12.07;3.00;;;9.60;99.90;;;;;;21133137;28;20024;-77
2023/12/11 07:42:25;;;;;;;42.20;9.00;;;9.70;99.90;;;;;;21159093;28;20055;-77
2023/12/11 07:52:30;;;;;;;46.40;11.47;;;9.60;99.90;;;;;;21130178;28;20486;-77
2023/12/11 08:02:31;;;;;;;13.43;4.00;;;9.70;99.90;;;;;;21156198;28;20039;-77
2023/12/11 08:12:32;;;;;;;81.07;9.90;;;10.00;99.90;;;;;;21157412;28;20089;-77
2023/12/11 08:22:33;;;;;;;263.02;13.27;;;9.70;99.90;;;;;;21145670;28;20043;-77
2023/12/11 08:32:37;;;;;;;4.87;3.10;;;9.60;99.90;;;;;;21135701;28;20028;-77
2023/12/11 08:42:38;;;;;;;11.95;8.48;;;9.80;99.90;;;;;;21152856;28;20088;-77
2023/12/11 08:52:41;;;;;;;7.70;3.70;;;10.00;99.90;;;;;;21158511;28;20487;-77
2023/12/11 09:02:41;;;;;;;6.68;2.33;;;10.00;99.90;;;;;;21163202;28;20136;-77
2023/12/11 09:12:42;;;;;;;12.67;5.60;;;10.20;99.90;;;;;;21157177;28;20415;-77
2023/12/11 09:22:43;;;;;;;4.90;2.67;;;10.00;99.90;;;;;;21152403;28;20020;-77
2023/12/11 09:32:44;;;;;;;6.47;3.20;;;10.00;99.90;;;;;;21140066;28;20084;-77
2023/12/11 09:42:46;;;;;;;13.17;4.80;;;10.00;99.90;;;;;;21153479;28;20027;-77
2023/12/11 09:52:47;;;;;;;7.28;3.45;;;10.00;99.90;;;;;;21156541;28;20126;-77
2023/12/11 10:02:50;;;;;;;;;;;10.00;99.90;;;;;;21114389;28;20032;-77
2023/12/11 10:12:54;;;;;;;2.20;0.82;;;10.00;99.90;;;;;;21155765;28;19962;-77
2023/12/11 10:22:55;;;;;;;3.40;1.05;;;9.90;99.90;;;;;;21157016;28;20072;-77
2023/12/11 10:33:01;;;;;;;2.78;1.33;;;10.00;99.90;;;;;;21147804;28;20118;-77
2023/12/11 10:43:02;;;;;;;7.90;2.58;;;10.00;99.90;;;;;;21126622;28;20059;-77
2023/12/11 10:53:05;;;;;;;2.27;1.47;;;10.00;99.90;;;;;;21147103;28;20084;-77
2023/12/11 11:03:10;;;;;;;8.55;3.25;;;10.10;99.90;;;;;;21127541;28;20034;-77
2023/12/11 11:13:21;;;;;;;4.00;2.30;;;10.10;99.90;;;;;;21136733;28;20506;-77
2023/12/11 11:23:26;;;;;;;8.00;2.80;;;10.00;99.90;;;;;;21141324;28;20016;-76
2023/12/11 11:33:55;;;;;;;3.58;2.05;;;9.90;99.90;;;;;;21136843;28;20032;-77
2023/12/11 11:44:07;;;;;;;6.30;2.72;;;10.00;99.90;;;;;;21154536;28;20039;-76
2023/12/11 11:54:09;;;;;;;5.30;1.25;;;10.10;99.90;;;;;;21172666;28;20484;-75
2023/12/11 12:04:10;;;;;;;3.40;0.70;;;10.10;99.90;;;;;;21186891;28;20024;-78
2023/12/11 12:14:14;;;;;;;3.93;0.53;;;10.20;99.90;;;;;;21153422;28;20023;-77
2023/12/11 12:24:14;;;;;;;0.65;0.50;;;10.20;99.90;;;;;;21139490;28;20035;-77
2023/12/11 12:34:17;;;;;;;1.17;0.40;;;10.20;99.90;;;;;;21119140;28;20024;-77
2023/12/11 12:44:18;;;;;;;0.93;0.60;;;10.20;99.90;;;;;;21154642;28;20028;-77
2023/12/11 12:54:20;;;;;;;3.08;0.60;;;10.20;99.90;;;;;;21165648;28;20109;-77
2023/12/11 13:04:22;;;;;;;1.15;0.60;;;10.30;99.90;;;;;;21156791;28;20427;-77
2023/12/11 13:14:26;;;;;;;1.52;0.70;;;10.20;99.90;;;;;;21168894;28;20088;-77
2023/12/11 13:24:27;;;;;;;0.73;0.30;;;10.10;99.90;;;;;;21175236;28;20036;-77
2023/12/11 13:34:28;;;;;;;0.67;0.40;;;9.90;99.90;;;;;;21146247;28;20058;-78
2023/12/11 13:44:29;;;;;;;2.40;0.60;;;9.90;99.90;;;;;;21073795;28;20027;-78
2023/12/11 13:54:29;;;;;;;0.37;0.30;;;9.90;99.90;;;;;;21087658;28;20038;-78
2023/12/11 14:04:30;;;;;;;0.67;0.60;;;9.90;99.90;;;;;;21065844;28;20039;-78
2023/12/11 14:14:31;;;;;;;1.50;0.50;;;10.00;99.90;;;;;;21071715;28;20397;-78
2023/12/11 14:24:32;;;;;;;1.77;0.50;;;10.10;99.90;;;;;;21081675;28;20032;-79
2023/12/11 14:34:33;;;;;;;2.60;0.70;;;10.10;99.90;;;;;;21082883;28;20028;-78
2023/12/11 14:44:35;;;;;;;0.50;0.40;;;10.00;99.90;;;;;;21084857;28;20035;-78
2023/12/11 14:54:35;;;;;;;3.05;1.00;;;10.00;99.90;;;;;;21085370;28;20031;-77
2023/12/11 15:04:36;;;;;;;3.17;0.63;;;9.90;99.90;;;;;;21078154;28;20024;-78
2023/12/11 15:14:37;;;;;;;0.80;0.57;;;9.90;99.90;;;;;;21088452;28;20091;-79
2023/12/11 15:24:37;;;;;;;5.43;0.90;;;10.00;99.90;;;;;;21060958;28;20530;-79
2023/12/11 15:34:41;;;;;;;4.43;0.90;;;9.90;99.90;;;;;;21111847;28;20036;-78
2023/12/11 15:44:44;;;;;;;0.95;0.60;;;9.90;99.90;;;;;;21113670;28;20031;-77
2023/12/11 15:54:44;;;;;;;1.38;0.40;;;9.80;99.90;;;;;;21097561;28;20043;-77
2023/12/11 16:04:45;;;;;;;2.23;0.60;;;9.90;99.90;;;;;;21117977;28;20027;-79
2023/12/11 16:14:46;;;;;;;3.50;0.80;;;9.90;99.90;;;;;;21084575;28;20297;-79
2023/12/11 16:24:47;;;;;;;5.23;2.20;;;9.90;99.90;;;;;;21098708;28;20038;-79
2023/12/11 16:34:47;;;;;;;1.77;0.60;;;9.80;99.90;;;;;;21086153;28;20035;-81
2023/12/11 16:44:48;;;;;;;2.03;0.70;;;9.90;99.90;;;;;;21083664;28;20515;-78
2023/12/11 16:54:50;;;;;;;3.87;0.97;;;9.90;99.90;;;;;;21102681;28;20036;-77
2023/12/11 17:04:50;;;;;;;1.90;0.50;;;9.80;99.90;;;;;;21122462;28;20101;-80
2023/12/11 17:14:51;;;;;;;3.20;0.83;;;9.90;99.90;;;;;;21120295;28;20440;-79
2023/12/11 17:24:52;;;;;;;2.83;0.80;;;10.00;99.90;;;;;;21086633;28;20028;-78
2023/12/11 17:34:53;;;;;;;5.60;1.13;;;9.90;99.90;;;;;;21103567;28;20075;-79
2023/12/11 17:44:54;;;;;;;1.27;0.70;;;9.80;99.90;;;;;;21093886;28;20100;-79
2023/12/11 17:54:54;;;;;;;2.43;1.20;;;9.70;99.90;;;;;;21077833;28;20039;-80
2023/12/11 18:04:55;;;;;;;3.80;1.37;;;9.60;99.90;;;;;;21080136;28;20035;-79
2023/12/11 18:14:56;;;;;;;5.60;2.30;;;9.40;99.90;;;;;;21081939;28;20092;-79
2023/12/11 18:24:57;;;;;;;7.83;2.37;;;9.20;99.90;;;;;;21085771;28;20024;-79
2023/12/11 18:35:00;;;;;;;5.83;2.47;;;9.00;99.90;;;;;;21111062;28;20020;-79
2023/12/11 18:45:00;;;;;;;2.53;1.08;;;8.90;99.90;;;;;;21093669;28;20099;-78
2023/12/11 18:55:01;;;;;;;4.80;1.83;;;9.30;99.90;;;;;;21104555;28;20024;-80
2023/12/11 19:05:02;;;;;;;10.13;3.70;;;9.40;99.90;;;;;;21090964;28;20046;-78
2023/12/11 19:15:03;;;;;;;6.60;4.10;;;9.00;99.90;;;;;;21093440;28;20036;-79
2023/12/11 19:25:04;;;;;;;10.68;5.50;;;8.70;99.90;;;;;;21119460;28;20290;-79
2023/12/11 19:35:08;;;;;;;8.00;4.40;;;8.60;99.90;;;;;;21128302;28;20036;-79
2023/12/11 19:45:09;;;;;;;10.00;4.20;;;8.50;99.90;;;;;;21113785;28;20031;-78
2023/12/11 19:55:10;;;;;;;10.65;5.72;;;8.40;99.90;;;;;;21102762;28;20024;-78
2023/12/11 20:05:11;;;;;;;;;;;8.30;99.90;;;;;;21103884;28;20085;-79
2023/12/11 20:15:12;;;;;;;7.30;3.53;;;8.30;99.90;;;;;;21097754;28;20330;-78
2023/12/11 20:25:13;;;;;;;9.80;4.57;;;8.60;99.90;;;;;;21098382;28;20035;-78
2023/12/11 20:35:14;;;;;;;8.37;4.63;;;8.50;99.90;;;;;;21107090;28;20028;-78
2023/12/11 20:45:15;;;;;;;12.50;4.40;;;8.40;99.90;;;;;;21105327;28;20032;-79
2023/12/11 20:55:15;;;;;;;6.10;3.53;;;8.30;99.90;;;;;;21104135;28;20084;-78
2023/12/11 21:05:16;;;;;;;8.03;4.60;;;8.30;99.90;;;;;;21104938;28;20028;-78
2023/12/11 21:15:17;;;;;;;8.50;4.40;;;8.40;99.90;;;;;;21112668;28;20024;-78
2023/12/11 21:25:18;;;;;;;3.90;2.38;;;8.40;99.90;;;;;;21110309;28;20035;-76
2023/12/11 21:35:18;;;;;;;5.33;3.27;;;8.40;99.90;;;;;;21127867;28;20028;-80
2023/12/11 21:45:19;;;;;;;5.60;2.03;;;8.60;99.90;;;;;;21126609;28;20025;-79
2023/12/11 21:55:20;;;;;;;3.70;2.03;;;8.50;99.90;;;;;;21118052;28;20025;-79
2023/12/11 22:05:21;;;;;;;9.53;3.50;;;8.60;99.90;;;;;;21096059;28;20071;-80
2023/12/11 22:15:21;;;;;;;9.40;3.50;;;8.70;99.90;;;;;;21112526;28;20504;-80
2023/12/11 22:25:22;;;;;;;8.63;3.47;;;8.70;99.90;;;;;;21093167;28;20089;-80
2023/12/11 22:35:23;;;;;;;14.07;3.37;;;8.70;99.90;;;;;;21131736;28;20028;-79
2023/12/11 22:45:24;;;;;;;3.70;1.50;;;8.70;99.90;;;;;;21124259;28;20033;-79
2023/12/11 22:55:25;;;;;;;2.90;1.30;;;8.80;99.90;;;;;;21110295;28;20041;-80
2023/12/11 23:05:25;;;;;;;2.77;1.33;;;8.90;99.90;;;;;;21144070;28;20094;-79
2023/12/11 23:15:26;;;;;;;2.87;1.60;;;8.90;99.90;;;;;;21118990;28;20040;-79
2023/12/11 23:25:27;;;;;;;5.70;1.83;;;8.90;99.90;;;;;;21104269;28;20095;-78
2023/12/11 23:35:27;;;;;;;9.27;3.07;;;8.90;99.90;;;;;;21120686;28;20037;-79
2023/12/11 23:45:28;;;;;;;3.10;1.90;;;9.00;99.90;;;;;;21102502;28;20100;-78
2023/12/11 23:55:29;;;;;;;2.73;2.00;;;8.80;99.90;;;;;;21126004;28;20058;-80
